Ava, New York
Current Conditions -  °F | °C
As of 6:53 PM on Friday 21 Nov 2014 (Local Time) from KRME Reporting Station
Overcast Overcast  
Wind Chill: -10°   Ceiling: 4100
Heat Index: -6°   Visibility: 10mi
Dew Point: -8°   Wind: 6mph
Humidity: 82%   Direction: 320°NW
Pressure: 30.43"   Gusts: NA
Location:  43.42°N, 75.48°W
Report Text: KRME 212353Z 32005KT 10SM BKN041 BKN049 OVC070 M06/M08 A3043 RMK AO2 SNB28E46 SLP311 P0000 60000 T10561083 11033 21067 51013
Loading
Personal Weather Stations






























Interactive Weather Map New forecast layout! Learn more

10-Day Weather Forecast

Advertisements
Track Severe Weather on mobile